Aquilla, Texas
Current Conditions -  °F | °C
As of 11:51 AM on Friday 31 Oct 2014 (Local Time) from KACT Reporting Station
Clear Clear  
Wind Chill: 19°   Ceiling: Unl
Heat Index: 19°   Visibility: 10mi
Dew Point:   Wind: 15mph
Humidity: 40%   Direction: 10°N
Pressure: 30.32"   Gusts: NA
Location:  31.85°N, 97.22°W
Report Text: KACT 311651Z 01013KT 10SM CLR 19/06 A3032 RMK AO2 SLP264 T01940056
Loading
Personal Weather Stations






























Interactive Weather Map
Tropical Storm Tracking
New forecast layout! Learn more

10-Day Weather Forecast

Advertisements
Track Severe Weather on mobile